sensor_id;sensor_type;location;lat;lon;timestamp;temperature;humidity
13898;DHT22;7019;50.766;4.474;2023-08-20T00:01:12;18.60;99.90
13898;DHT22;7019;50.766;4.474;2023-08-20T00:03:42;18.40;99.90
13898;DHT22;7019;50.766;4.474;2023-08-20T00:06:10;18.30;99.90
13898;DHT22;7019;50.766;4.474;2023-08-20T00:08:37;18.20;99.90
13898;DHT22;7019;50.766;4.474;2023-08-20T00:11:05;18.20;99.90
13898;DHT22;7019;50.766;4.474;2023-08-20T00:13:33;18.10;99.90
13898;DHT22;7019;50.766;4.474;2023-08-20T00:16:01;18.10;99.90
13898;DHT22;7019;50.766;4.474;2023-08-20T00:18:29;18.00;99.90
13898;DHT22;7019;50.766;4.474;2023-08-20T00:20:57;17.90;99.90
13898;DHT22;7019;50.766;4.474;2023-08-20T00:23:26;17.80;99.90
13898;DHT22;7019;50.766;4.474;2023-08-20T00:25:53;17.70;99.90
13898;DHT22;7019;50.766;4.474;2023-08-20T00:28:20;17.70;99.90
13898;DHT22;7019;50.766;4.474;2023-08-20T00:30:49;17.60;99.90
13898;DHT22;7019;50.766;4.474;2023-08-20T00:33:17;17.50;99.90
13898;DHT22;7019;50.766;4.474;2023-08-20T00:35:45;17.50;99.90
13898;DHT22;7019;50.766;4.474;2023-08-20T00:38:12;17.50;99.90
13898;DHT22;7019;50.766;4.474;2023-08-20T00:40:39;17.40;99.90
13898;DHT22;7019;50.766;4.474;2023-08-20T00:43:06;17.40;99.90
13898;DHT22;7019;50.766;4.474;2023-08-20T00:45:34;17.40;99.90
13898;DHT22;7019;50.766;4.474;2023-08-20T00:48:04;17.40;99.90
13898;DHT22;7019;50.766;4.474;2023-08-20T00:50:32;17.40;99.90
13898;DHT22;7019;50.766;4.474;2023-08-20T00:53:00;17.40;99.90
13898;DHT22;7019;50.766;4.474;2023-08-20T00:55:28;17.40;99.90
13898;DHT22;7019;50.766;4.474;2023-08-20T00:57:55;17.40;99.90
13898;DHT22;7019;50.766;4.474;2023-08-20T01:00:23;17.40;99.90
13898;DHT22;7019;50.766;4.474;2023-08-20T01:02:50;17.40;99.90
13898;DHT22;7019;50.766;4.474;2023-08-20T01:05:19;17.50;99.90
13898;DHT22;7019;50.766;4.474;2023-08-20T01:07:58;17.50;99.90
13898;DHT22;7019;50.766;4.474;2023-08-20T01:10:34;17.50;99.90
13898;DHT22;7019;50.766;4.474;2023-08-20T01:13:03;17.50;99.90
13898;DHT22;7019;50.766;4.474;2023-08-20T01:15:31;17.50;99.90
13898;DHT22;7019;50.766;4.474;2023-08-20T01:17:58;17.50;99.90
13898;DHT22;7019;50.766;4.474;2023-08-20T01:20:30;17.50;99.90
13898;DHT22;7019;50.766;4.474;2023-08-20T01:26:12;17.50;99.90
13898;DHT22;7019;50.766;4.474;2023-08-20T01:28:44;17.60;99.90
13898;DHT22;7019;50.766;4.474;2023-08-20T01:31:12;17.70;99.90
13898;DHT22;7019;50.766;4.474;2023-08-20T01:33:40;17.80;99.90
13898;DHT22;7019;50.766;4.474;2023-08-20T01:36:08;17.80;99.90
13898;DHT22;7019;50.766;4.474;2023-08-20T01:38:36;17.90;99.90
13898;DHT22;7019;50.766;4.474;2023-08-20T01:41:03;18.00;99.90
13898;DHT22;7019;50.766;4.474;2023-08-20T01:43:30;18.00;99.90
13898;DHT22;7019;50.766;4.474;2023-08-20T01:45:59;18.00;99.90
13898;DHT22;7019;50.766;4.474;2023-08-20T01:48:26;18.00;99.90
13898;DHT22;7019;50.766;4.474;2023-08-20T01:50:53;18.00;99.90
13898;DHT22;7019;50.766;4.474;2023-08-20T01:53:21;18.10;99.90
13898;DHT22;7019;50.766;4.474;2023-08-20T01:55:48;18.00;99.90
13898;DHT22;7019;50.766;4.474;2023-08-20T01:58:15;18.10;99.90
13898;DHT22;7019;50.766;4.474;2023-08-20T02:00:42;18.10;99.90
13898;DHT22;7019;50.766;4.474;2023-08-20T02:03:11;18.10;99.90
13898;DHT22;7019;50.766;4.474;2023-08-20T02:05:38;18.10;99.90
13898;DHT22;7019;50.766;4.474;2023-08-20T02:08:05;18.10;99.90
13898;DHT22;7019;50.766;4.474;2023-08-20T02:10:32;18.10;99.90
13898;DHT22;7019;50.766;4.474;2023-08-20T02:12:59;18.10;99.90
13898;DHT22;7019;50.766;4.474;2023-08-20T02:15:26;18.10;99.90
13898;DHT22;7019;50.766;4.474;2023-08-20T02:17:53;18.10;99.90
13898;DHT22;7019;50.766;4.474;2023-08-20T02:20:21;18.10;99.90
13898;DHT22;7019;50.766;4.474;2023-08-20T02:22:49;18.00;99.90
13898;DHT22;7019;50.766;4.474;2023-08-20T02:25:16;18.00;99.90
13898;DHT22;7019;50.766;4.474;2023-08-20T02:27:43;18.00;99.90
13898;DHT22;7019;50.766;4.474;2023-08-20T02:30:11;17.90;99.90
13898;DHT22;7019;50.766;4.474;2023-08-20T02:32:39;17.90;99.90
13898;DHT22;7019;50.766;4.474;2023-08-20T02:35:06;17.90;99.90
13898;DHT22;7019;50.766;4.474;2023-08-20T02:37:35;17.80;99.90
13898;DHT22;7019;50.766;4.474;2023-08-20T02:40:03;17.80;99.90
13898;DHT22;7019;50.766;4.474;2023-08-20T02:42:31;17.70;99.90
13898;DHT22;7019;50.766;4.474;2023-08-20T02:44:58;17.60;99.90
13898;DHT22;7019;50.766;4.474;2023-08-20T02:47:25;17.50;99.90
13898;DHT22;7019;50.766;4.474;2023-08-20T02:49:52;17.40;99.90
13898;DHT22;7019;50.766;4.474;2023-08-20T02:52:20;17.40;99.90
13898;DHT22;7019;50.766;4.474;2023-08-20T02:54:48;17.30;99.90
13898;DHT22;7019;50.766;4.474;2023-08-20T02:57:15;17.30;99.90
13898;DHT22;7019;50.766;4.474;2023-08-20T02:59:43;17.20;99.90
13898;DHT22;7019;50.766;4.474;2023-08-20T03:02:10;17.20;99.90
13898;DHT22;7019;50.766;4.474;2023-08-20T03:04:37;17.10;99.90
13898;DHT22;7019;50.766;4.474;2023-08-20T03:07:04;17.00;99.90
13898;DHT22;7019;50.766;4.474;2023-08-20T03:09:31;17.00;99.90
13898;DHT22;7019;50.766;4.474;2023-08-20T03:11:59;17.00;99.90
13898;DHT22;7019;50.766;4.474;2023-08-20T03:14:26;17.00;99.90
13898;DHT22;7019;50.766;4.474;2023-08-20T03:16:53;17.00;99.90
13898;DHT22;7019;50.766;4.474;2023-08-20T03:19:20;17.00;99.90
13898;DHT22;7019;50.766;4.474;2023-08-20T03:21:47;16.90;99.90
13898;DHT22;7019;50.766;4.474;2023-08-20T03:24:14;16.80;99.90
13898;DHT22;7019;50.766;4.474;2023-08-20T03:26:41;16.80;99.90
13898;DHT22;7019;50.766;4.474;2023-08-20T03:29:10;16.70;99.90
13898;DHT22;7019;50.766;4.474;2023-08-20T03:31:37;16.60;99.90
13898;DHT22;7019;50.766;4.474;2023-08-20T03:34:04;16.60;99.90
13898;DHT22;7019;50.766;4.474;2023-08-20T03:36:31;16.60;99.90
13898;DHT22;7019;50.766;4.474;2023-08-20T03:38:59;16.50;99.90
13898;DHT22;7019;50.766;4.474;2023-08-20T03:41:26;16.40;99.90
13898;DHT22;7019;50.766;4.474;2023-08-20T03:43:53;16.40;99.90
13898;DHT22;7019;50.766;4.474;2023-08-20T03:46:21;16.30;99.90
13898;DHT22;7019;50.766;4.474;2023-08-20T03:48:48;16.30;99.90
13898;DHT22;7019;50.766;4.474;2023-08-20T03:51:15;16.30;99.90
13898;DHT22;7019;50.766;4.474;2023-08-20T03:53:42;16.30;99.90
13898;DHT22;7019;50.766;4.474;2023-08-20T03:56:09;16.20;99.90
13898;DHT22;7019;50.766;4.474;2023-08-20T03:58:36;16.20;99.90
13898;DHT22;7019;50.766;4.474;2023-08-20T04:01:03;16.10;99.90
13898;DHT22;7019;50.766;4.474;2023-08-20T04:03:32;16.10;99.90
13898;DHT22;7019;50.766;4.474;2023-08-20T04:05:59;16.10;99.90
13898;DHT22;7019;50.766;4.474;2023-08-20T04:08:26;16.00;99.90
13898;DHT22;7019;50.766;4.474;2023-08-20T04:10:53;16.00;99.90
13898;DHT22;7019;50.766;4.474;2023-08-20T04:13:20;16.00;99.90
13898;DHT22;7019;50.766;4.474;2023-08-20T04:15:47;16.00;99.90
13898;DHT22;7019;50.766;4.474;2023-08-20T04:18:14;15.90;99.90
13898;DHT22;7019;50.766;4.474;2023-08-20T04:20:43;15.90;99.90
13898;DHT22;7019;50.766;4.474;2023-08-20T04:23:10;15.90;99.90
13898;DHT22;7019;50.766;4.474;2023-08-20T04:25:37;15.80;99.90
13898;DHT22;7019;50.766;4.474;2023-08-20T04:28:04;15.80;99.90
13898;DHT22;7019;50.766;4.474;2023-08-20T04:30:31;15.80;99.90
13898;DHT22;7019;50.766;4.474;2023-08-20T04:32:58;15.70;99.90
13898;DHT22;7019;50.766;4.474;2023-08-20T04:35:25;15.70;99.90
13898;DHT22;7019;50.766;4.474;2023-08-20T04:37:54;15.70;99.90
13898;DHT22;7019;50.766;4.474;2023-08-20T04:40:21;15.70;99.90
13898;DHT22;7019;50.766;4.474;2023-08-20T04:42:49;15.70;99.90
13898;DHT22;7019;50.766;4.474;2023-08-20T04:45:16;15.70;99.90
13898;DHT22;7019;50.766;4.474;2023-08-20T04:47:45;15.80;99.90
13898;DHT22;7019;50.766;4.474;2023-08-20T04:50:12;15.80;99.90
13898;DHT22;7019;50.766;4.474;2023-08-20T04:52:40;15.80;99.90
13898;DHT22;7019;50.766;4.474;2023-08-20T04:55:08;15.80;99.90
13898;DHT22;7019;50.766;4.474;2023-08-20T04:57:35;15.80;99.90
13898;DHT22;7019;50.766;4.474;2023-08-20T05:00:04;15.80;99.90
13898;DHT22;7019;50.766;4.474;2023-08-20T05:02:32;15.80;99.90
13898;DHT22;7019;50.766;4.474;2023-08-20T05:04:59;15.80;99.90
13898;DHT22;7019;50.766;4.474;2023-08-20T05:07:26;15.80;99.90
13898;DHT22;7019;50.766;4.474;2023-08-20T05:09:53;15.80;99.90
13898;DHT22;7019;50.766;4.474;2023-08-20T05:12:22;15.80;99.90
13898;DHT22;7019;50.766;4.474;2023-08-20T05:14:49;15.80;99.90
13898;DHT22;7019;50.766;4.474;2023-08-20T05:17:16;15.80;99.90
13898;DHT22;7019;50.766;4.474;2023-08-20T05:19:43;15.90;99.90
13898;DHT22;7019;50.766;4.474;2023-08-20T05:22:10;15.90;99.90
13898;DHT22;7019;50.766;4.474;2023-08-20T05:24:37;15.90;99.90
13898;DHT22;7019;50.766;4.474;2023-08-20T05:27:06;15.90;99.90
13898;DHT22;7019;50.766;4.474;2023-08-20T05:29:36;16.00;99.90
13898;DHT22;7019;50.766;4.474;2023-08-20T05:32:04;16.00;99.90
13898;DHT22;7019;50.766;4.474;2023-08-20T05:34:31;16.10;99.90
13898;DHT22;7019;50.766;4.474;2023-08-20T05:36:58;16.10;99.90
13898;DHT22;7019;50.766;4.474;2023-08-20T05:39:26;16.10;99.90
13898;DHT22;7019;50.766;4.474;2023-08-20T05:41:53;16.20;99.90
13898;DHT22;7019;50.766;4.474;2023-08-20T05:44:21;16.20;99.90
13898;DHT22;7019;50.766;4.474;2023-08-20T05:46:49;16.20;99.90
13898;DHT22;7019;50.766;4.474;2023-08-20T05:49:16;16.20;99.90
13898;DHT22;7019;50.766;4.474;2023-08-20T05:51:44;16.30;99.90
13898;DHT22;7019;50.766;4.474;2023-08-20T05:54:11;16.30;99.90
13898;DHT22;7019;50.766;4.474;2023-08-20T05:56:38;16.30;99.90
13898;DHT22;7019;50.766;4.474;2023-08-20T05:59:05;16.40;99.90
13898;DHT22;7019;50.766;4.474;2023-08-20T06:01:32;16.40;99.90
13898;DHT22;7019;50.766;4.474;2023-08-20T06:04:00;16.40;99.90
13898;DHT22;7019;50.766;4.474;2023-08-20T06:06:27;16.40;99.90
13898;DHT22;7019;50.766;4.474;2023-08-20T06:08:55;16.50;99.90
13898;DHT22;7019;50.766;4.474;2023-08-20T06:11:22;16.50;99.90
13898;DHT22;7019;50.766;4.474;2023-08-20T06:13:49;16.60;99.90
13898;DHT22;7019;50.766;4.474;2023-08-20T06:16:16;16.60;99.90
13898;DHT22;7019;50.766;4.474;2023-08-20T06:18:43;16.80;99.90
13898;DHT22;7019;50.766;4.474;2023-08-20T06:21:11;17.20;99.90
13898;DHT22;7019;50.766;4.474;2023-08-20T06:23:39;18.00;99.90
13898;DHT22;7019;50.766;4.474;2023-08-20T06:26:06;18.80;99.90
13898;DHT22;7019;50.766;4.474;2023-08-20T06:28:33;19.60;99.90
13898;DHT22;7019;50.766;4.474;2023-08-20T06:31:01;20.40;99.90
13898;DHT22;7019;50.766;4.474;2023-08-20T06:33:28;21.10;99.90
13898;DHT22;7019;50.766;4.474;2023-08-20T06:35:55;21.80;99.90
13898;DHT22;7019;50.766;4.474;2023-08-20T06:38:23;22.40;99.90
13898;DHT22;7019;50.766;4.474;2023-08-20T06:40:50;22.80;99.90
13898;DHT22;7019;50.766;4.474;2023-08-20T06:43:18;23.20;99.90
13898;DHT22;7019;50.766;4.474;2023-08-20T06:45:45;23.60;99.90
13898;DHT22;7019;50.766;4.474;2023-08-20T06:48:12;23.60;99.90
13898;DHT22;7019;50.766;4.474;2023-08-20T06:50:41;24.00;99.90
13898;DHT22;7019;50.766;4.474;2023-08-20T06:53:08;24.00;99.90
13898;DHT22;7019;50.766;4.474;2023-08-20T06:55:37;24.20;99.90
13898;DHT22;7019;50.766;4.474;2023-08-20T06:58:04;24.40;99.90
13898;DHT22;7019;50.766;4.474;2023-08-20T07:00:31;24.60;99.90
13898;DHT22;7019;50.766;4.474;2023-08-20T07:02:58;25.00;99.90
13898;DHT22;7019;50.766;4.474;2023-08-20T07:05:25;25.20;99.90
13898;DHT22;7019;50.766;4.474;2023-08-20T07:07:52;25.60;99.90
13898;DHT22;7019;50.766;4.474;2023-08-20T07:10:19;25.90;99.90
13898;DHT22;7019;50.766;4.474;2023-08-20T07:12:48;26.10;99.90
13898;DHT22;7019;50.766;4.474;2023-08-20T07:15:15;26.10;99.90
13898;DHT22;7019;50.766;4.474;2023-08-20T07:17:42;26.30;99.90
13898;DHT22;7019;50.766;4.474;2023-08-20T07:20:10;26.70;99.90
13898;DHT22;7019;50.766;4.474;2023-08-20T07:22:37;27.00;99.90
13898;DHT22;7019;50.766;4.474;2023-08-20T07:25:04;27.20;99.90
13898;DHT22;7019;50.766;4.474;2023-08-20T07:27:31;27.40;99.90
13898;DHT22;7019;50.766;4.474;2023-08-20T07:30:00;27.40;99.90
13898;DHT22;7019;50.766;4.474;2023-08-20T07:32:27;27.70;99.90
13898;DHT22;7019;50.766;4.474;2023-08-20T07:34:54;27.80;99.90
13898;DHT22;7019;50.766;4.474;2023-08-20T07:37:21;28.30;99.90
13898;DHT22;7019;50.766;4.474;2023-08-20T07:39:48;28.40;99.90
13898;DHT22;7019;50.766;4.474;2023-08-20T07:42:15;28.50;99.90
13898;DHT22;7019;50.766;4.474;2023-08-20T07:44:43;28.90;99.90
13898;DHT22;7019;50.766;4.474;2023-08-20T07:47:12;29.00;99.90
13898;DHT22;7019;50.766;4.474;2023-08-20T07:49:39;29.00;99.90
13898;DHT22;7019;50.766;4.474;2023-08-20T07:52:06;29.10;99.90
13898;DHT22;7019;50.766;4.474;2023-08-20T07:54:33;29.20;99.90
13898;DHT22;7019;50.766;4.474;2023-08-20T07:57:00;29.60;99.90
13898;DHT22;7019;50.766;4.474;2023-08-20T07:59:28;29.60;99.90
13898;DHT22;7019;50.766;4.474;2023-08-20T08:01:55;29.60;99.90
13898;DHT22;7019;50.766;4.474;2023-08-20T08:04:23;29.80;99.90
13898;DHT22;7019;50.766;4.474;2023-08-20T08:06:51;30.00;99.90
13898;DHT22;7019;50.766;4.474;2023-08-20T08:09:19;30.20;99.90
13898;DHT22;7019;50.766;4.474;2023-08-20T08:11:48;30.50;99.90
13898;DHT22;7019;50.766;4.474;2023-08-20T08:14:15;30.50;99.90
13898;DHT22;7019;50.766;4.474;2023-08-20T08:16:42;30.50;99.90
13898;DHT22;7019;50.766;4.474;2023-08-20T08:19:09;30.80;99.90
13898;DHT22;7019;50.766;4.474;2023-08-20T08:21:38;31.00;99.90
13898;DHT22;7019;50.766;4.474;2023-08-20T08:24:05;30.70;99.90
13898;DHT22;7019;50.766;4.474;2023-08-20T08:26:34;30.80;99.90
13898;DHT22;7019;50.766;4.474;2023-08-20T08:29:01;31.10;99.90
13898;DHT22;7019;50.766;4.474;2023-08-20T08:31:28;31.20;99.90
13898;DHT22;7019;50.766;4.474;2023-08-20T08:33:55;31.20;99.90
13898;DHT22;7019;50.766;4.474;2023-08-20T08:36:22;31.50;99.90
13898;DHT22;7019;50.766;4.474;2023-08-20T08:38:52;31.60;99.90
13898;DHT22;7019;50.766;4.474;2023-08-20T08:41:22;32.00;99.50
13898;DHT22;7019;50.766;4.474;2023-08-20T08:43:49;31.80;99.10
13898;DHT22;7019;50.766;4.474;2023-08-20T08:46:16;31.70;99.40
13898;DHT22;7019;50.766;4.474;2023-08-20T08:48:46;31.30;99.30
13898;DHT22;7019;50.766;4.474;2023-08-20T08:51:14;31.30;98.70
13898;DHT22;7019;50.766;4.474;2023-08-20T08:53:42;31.50;99.20
13898;DHT22;7019;50.766;4.474;2023-08-20T08:56:11;31.20;99.10
13898;DHT22;7019;50.766;4.474;2023-08-20T08:58:38;31.00;99.70
13898;DHT22;7019;50.766;4.474;2023-08-20T09:01:06;31.30;99.90
13898;DHT22;7019;50.766;4.474;2023-08-20T09:03:33;31.20;99.10
13898;DHT22;7019;50.766;4.474;2023-08-20T09:06:01;31.60;99.50
13898;DHT22;7019;50.766;4.474;2023-08-20T09:08:31;31.70;99.80
13898;DHT22;7019;50.766;4.474;2023-08-20T09:11:00;31.60;99.60
13898;DHT22;7019;50.766;4.474;2023-08-20T09:13:34;31.70;98.20
13898;DHT22;7019;50.766;4.474;2023-08-20T09:16:04;31.40;98.10
13898;DHT22;7019;50.766;4.474;2023-08-20T09:18:31;31.40;96.60
13898;DHT22;7019;50.766;4.474;2023-08-20T09:21:00;31.00;98.50
13898;DHT22;7019;50.766;4.474;2023-08-20T09:23:29;30.80;97.20
13898;DHT22;7019;50.766;4.474;2023-08-20T09:25:57;30.80;98.60
13898;DHT22;7019;50.766;4.474;2023-08-20T09:28:24;31.20;98.70
13898;DHT22;7019;50.766;4.474;2023-08-20T09:31:00;31.30;97.10
13898;DHT22;7019;50.766;4.474;2023-08-20T09:33:29;31.50;98.20
13898;DHT22;7019;50.766;4.474;2023-08-20T09:35:56;31.80;99.00
13898;DHT22;7019;50.766;4.474;2023-08-20T09:38:24;31.90;98.20
13898;DHT22;7019;50.766;4.474;2023-08-20T09:40:52;31.90;97.30
13898;DHT22;7019;50.766;4.474;2023-08-20T09:43:23;31.70;99.20
13898;DHT22;7019;50.766;4.474;2023-08-20T09:45:55;31.70;97.70
13898;DHT22;7019;50.766;4.474;2023-08-20T09:48:24;31.80;98.40
13898;DHT22;7019;50.766;4.474;2023-08-20T09:50:57;32.00;99.10
13898;DHT22;7019;50.766;4.474;2023-08-20T09:53:27;32.00;99.40
13898;DHT22;7019;50.766;4.474;2023-08-20T09:56:03;32.10;98.70
13898;DHT22;7019;50.766;4.474;2023-08-20T09:58:34;31.90;98.40
13898;DHT22;7019;50.766;4.474;2023-08-20T10:01:02;31.30;98.10
13898;DHT22;7019;50.766;4.474;2023-08-20T10:03:30;30.80;99.30
13898;DHT22;7019;50.766;4.474;2023-08-20T10:05:58;30.80;99.10
13898;DHT22;7019;50.766;4.474;2023-08-20T10:08:27;30.70;98.80
13898;DHT22;7019;50.766;4.474;2023-08-20T10:10:54;30.90;99.60
13898;DHT22;7019;50.766;4.474;2023-08-20T10:13:21;30.70;98.00
13898;DHT22;7019;50.766;4.474;2023-08-20T10:15:49;31.00;99.00
13898;DHT22;7019;50.766;4.474;2023-08-20T10:18:19;30.60;99.20
13898;DHT22;7019;50.766;4.474;2023-08-20T10:20:50;30.80;98.60
13898;DHT22;7019;50.766;4.474;2023-08-20T10:23:22;30.90;98.10
13898;DHT22;7019;50.766;4.474;2023-08-20T10:25:52;31.10;98.70
13898;DHT22;7019;50.766;4.474;2023-08-20T10:28:22;31.20;99.90
13898;DHT22;7019;50.766;4.474;2023-08-20T10:31:06;31.30;98.80
13898;DHT22;7019;50.766;4.474;2023-08-20T10:33:35;31.20;98.30
13898;DHT22;7019;50.766;4.474;2023-08-20T10:36:14;30.90;97.90
13898;DHT22;7019;50.766;4.474;2023-08-20T10:38:42;30.70;98.80
13898;DHT22;7019;50.766;4.474;2023-08-20T10:41:11;30.20;98.20
13898;DHT22;7019;50.766;4.474;2023-08-20T10:43:39;30.20;99.40
13898;DHT22;7019;50.766;4.474;2023-08-20T10:46:13;30.20;99.60
13898;DHT22;7019;50.766;4.474;2023-08-20T10:48:41;30.20;99.30
13898;DHT22;7019;50.766;4.474;2023-08-20T10:51:13;30.30;99.10
13898;DHT22;7019;50.766;4.474;2023-08-20T10:53:42;30.60;98.60
13898;DHT22;7019;50.766;4.474;2023-08-20T10:56:11;30.30;99.90
13898;DHT22;7019;50.766;4.474;2023-08-20T10:58:40;30.40;99.50
13898;DHT22;7019;50.766;4.474;2023-08-20T11:01:21;30.10;98.60
13898;DHT22;7019;50.766;4.474;2023-08-20T11:03:50;29.50;99.30
13898;DHT22;7019;50.766;4.474;2023-08-20T11:06:19;29.40;99.70
13898;DHT22;7019;50.766;4.474;2023-08-20T11:08:46;29.10;99.90
13898;DHT22;7019;50.766;4.474;2023-08-20T11:11:13;28.90;99.90
13898;DHT22;7019;50.766;4.474;2023-08-20T11:13:41;29.10;99.90
13898;DHT22;7019;50.766;4.474;2023-08-20T11:16:08;29.10;99.90
13898;DHT22;7019;50.766;4.474;2023-08-20T11:18:36;29.10;99.90
13898;DHT22;7019;50.766;4.474;2023-08-20T11:21:03;29.40;99.90
13898;DHT22;7019;50.766;4.474;2023-08-20T11:23:32;29.50;99.90
13898;DHT22;7019;50.766;4.474;2023-08-20T11:25:59;29.30;99.90
13898;DHT22;7019;50.766;4.474;2023-08-20T11:28:27;29.70;99.90
13898;DHT22;7019;50.766;4.474;2023-08-20T11:30:55;29.60;99.80
13898;DHT22;7019;50.766;4.474;2023-08-20T11:33:23;29.70;99.90
13898;DHT22;7019;50.766;4.474;2023-08-20T11:35:52;30.10;99.90
13898;DHT22;7019;50.766;4.474;2023-08-20T11:38:22;30.50;99.90
13898;DHT22;7019;50.766;4.474;2023-08-20T11:40:51;30.40;99.90
13898;DHT22;7019;50.766;4.474;2023-08-20T11:43:18;30.40;99.40
13898;DHT22;7019;50.766;4.474;2023-08-20T11:45:49;30.20;99.90
13898;DHT22;7019;50.766;4.474;2023-08-20T11:48:16;30.20;99.90
13898;DHT22;7019;50.766;4.474;2023-08-20T11:50:44;29.80;99.40
13898;DHT22;7019;50.766;4.474;2023-08-20T11:53:11;29.70;99.90
13898;DHT22;7019;50.766;4.474;2023-08-20T11:55:39;29.30;99.90
13898;DHT22;7019;50.766;4.474;2023-08-20T11:58:11;29.30;99.90
13898;DHT22;7019;50.766;4.474;2023-08-20T12:00:40;29.30;99.50
13898;DHT22;7019;50.766;4.474;2023-08-20T12:03:08;29.10;99.90
13898;DHT22;7019;50.766;4.474;2023-08-20T12:05:35;29.50;99.90
13898;DHT22;7019;50.766;4.474;2023-08-20T12:08:04;29.60;99.90
13898;DHT22;7019;50.766;4.474;2023-08-20T12:10:33;29.70;99.90
13898;DHT22;7019;50.766;4.474;2023-08-20T12:13:02;29.50;99.70
13898;DHT22;7019;50.766;4.474;2023-08-20T12:15:31;29.70;99.60
13898;DHT22;7019;50.766;4.474;2023-08-20T12:18:02;29.80;99.90
13898;DHT22;7019;50.766;4.474;2023-08-20T12:20:31;30.10;99.90
13898;DHT22;7019;50.766;4.474;2023-08-20T12:22:59;30.10;99.90
13898;DHT22;7019;50.766;4.474;2023-08-20T12:25:29;29.70;99.90
13898;DHT22;7019;50.766;4.474;2023-08-20T12:27:56;29.90;99.90
13898;DHT22;7019;50.766;4.474;2023-08-20T12:30:23;30.20;99.90
13898;DHT22;7019;50.766;4.474;2023-08-20T12:32:51;30.10;99.70
13898;DHT22;7019;50.766;4.474;2023-08-20T12:35:19;29.90;99.90
13898;DHT22;7019;50.766;4.474;2023-08-20T12:37:46;30.00;99.90
13898;DHT22;7019;50.766;4.474;2023-08-20T12:40:13;30.20;99.90
13898;DHT22;7019;50.766;4.474;2023-08-20T12:42:41;30.10;99.90
13898;DHT22;7019;50.766;4.474;2023-08-20T12:45:08;30.00;99.90
13898;DHT22;7019;50.766;4.474;2023-08-20T12:47:36;29.90;99.90
13898;DHT22;7019;50.766;4.474;2023-08-20T12:50:05;29.60;99.90
13898;DHT22;7019;50.766;4.474;2023-08-20T12:52:33;29.30;99.90
13898;DHT22;7019;50.766;4.474;2023-08-20T12:55:00;28.70;99.90
13898;DHT22;7019;50.766;4.474;2023-08-20T12:57:28;28.50;99.90
13898;DHT22;7019;50.766;4.474;2023-08-20T12:59:55;28.70;99.90
13898;DHT22;7019;50.766;4.474;2023-08-20T13:02:22;29.20;99.90
13898;DHT22;7019;50.766;4.474;2023-08-20T13:04:50;29.90;99.90
13898;DHT22;7019;50.766;4.474;2023-08-20T13:07:19;30.30;99.90
13898;DHT22;7019;50.766;4.474;2023-08-20T13:09:47;30.80;99.90
13898;DHT22;7019;50.766;4.474;2023-08-20T13:12:14;31.30;99.90
13898;DHT22;7019;50.766;4.474;2023-08-20T13:14:43;31.90;99.90
13898;DHT22;7019;50.766;4.474;2023-08-20T13:17:11;32.20;99.90
13898;DHT22;7019;50.766;4.474;2023-08-20T13:19:38;32.20;99.60
13898;DHT22;7019;50.766;4.474;2023-08-20T13:22:05;32.30;99.90
13898;DHT22;7019;50.766;4.474;2023-08-20T13:24:33;32.00;98.90
13898;DHT22;7019;50.766;4.474;2023-08-20T13:27:00;32.00;99.80
13898;DHT22;7019;50.766;4.474;2023-08-20T13:29:28;31.30;99.30
13898;DHT22;7019;50.766;4.474;2023-08-20T13:31:55;30.60;99.10
13898;DHT22;7019;50.766;4.474;2023-08-20T13:34:22;30.20;99.60
13898;DHT22;7019;50.766;4.474;2023-08-20T13:36:49;30.10;99.90
13898;DHT22;7019;50.766;4.474;2023-08-20T13:39:16;30.20;99.90
13898;DHT22;7019;50.766;4.474;2023-08-20T13:41:46;30.40;99.90
13898;DHT22;7019;50.766;4.474;2023-08-20T13:44:13;30.90;99.90
13898;DHT22;7019;50.766;4.474;2023-08-20T13:46:40;31.10;99.90
13898;DHT22;7019;50.766;4.474;2023-08-20T13:49:07;31.10;99.90
13898;DHT22;7019;50.766;4.474;2023-08-20T13:51:34;30.90;99.90
13898;DHT22;7019;50.766;4.474;2023-08-20T13:54:01;30.60;99.90
13898;DHT22;7019;50.766;4.474;2023-08-20T13:56:29;30.50;99.90
13898;DHT22;7019;50.766;4.474;2023-08-20T13:58:57;30.70;99.90
13898;DHT22;7019;50.766;4.474;2023-08-20T14:01:24;30.80;99.90
13898;DHT22;7019;50.766;4.474;2023-08-20T14:03:52;30.80;98.90
13898;DHT22;7019;50.766;4.474;2023-08-20T14:06:20;30.40;99.90
13898;DHT22;7019;50.766;4.474;2023-08-20T14:08:47;30.60;99.90
13898;DHT22;7019;50.766;4.474;2023-08-20T14:11:14;30.90;99.90
13898;DHT22;7019;50.766;4.474;2023-08-20T14:13:41;30.50;99.90
13898;DHT22;7019;50.766;4.474;2023-08-20T14:16:09;30.10;99.90
13898;DHT22;7019;50.766;4.474;2023-08-20T14:18:36;30.00;99.90
13898;DHT22;7019;50.766;4.474;2023-08-20T14:21:03;30.30;99.90
13898;DHT22;7019;50.766;4.474;2023-08-20T14:23:30;30.50;99.90
13898;DHT22;7019;50.766;4.474;2023-08-20T14:25:58;30.60;99.90
13898;DHT22;7019;50.766;4.474;2023-08-20T14:28:25;30.50;99.90
13898;DHT22;7019;50.766;4.474;2023-08-20T14:30:52;30.20;99.90
13898;DHT22;7019;50.766;4.474;2023-08-20T14:33:21;30.10;99.90
13898;DHT22;7019;50.766;4.474;2023-08-20T14:35:48;30.10;99.90
13898;DHT22;7019;50.766;4.474;2023-08-20T14:38:16;30.20;99.90
13898;DHT22;7019;50.766;4.474;2023-08-20T14:40:43;30.30;99.90
13898;DHT22;7019;50.766;4.474;2023-08-20T14:43:10;30.50;99.90
13898;DHT22;7019;50.766;4.474;2023-08-20T14:45:37;30.80;99.90
13898;DHT22;7019;50.766;4.474;2023-08-20T14:48:04;30.90;99.90
13898;DHT22;7019;50.766;4.474;2023-08-20T14:50:33;31.00;99.90
13898;DHT22;7019;50.766;4.474;2023-08-20T14:53:00;30.90;99.90
13898;DHT22;7019;50.766;4.474;2023-08-20T14:55:27;30.90;99.90
13898;DHT22;7019;50.766;4.474;2023-08-20T14:57:54;30.80;99.80
13898;DHT22;7019;50.766;4.474;2023-08-20T15:00:22;31.10;99.90
13898;DHT22;7019;50.766;4.474;2023-08-20T15:02:50;31.00;99.90
13898;DHT22;7019;50.766;4.474;2023-08-20T15:05:17;30.90;99.90
13898;DHT22;7019;50.766;4.474;2023-08-20T15:07:46;30.50;99.90
13898;DHT22;7019;50.766;4.474;2023-08-20T15:10:13;30.00;99.90
13898;DHT22;7019;50.766;4.474;2023-08-20T15:12:40;29.70;99.90
13898;DHT22;7019;50.766;4.474;2023-08-20T15:15:07;29.30;99.90
13898;DHT22;7019;50.766;4.474;2023-08-20T15:17:35;29.10;99.90
13898;DHT22;7019;50.766;4.474;2023-08-20T15:20:04;28.90;99.90
13898;DHT22;7019;50.766;4.474;2023-08-20T15:22:33;28.70;99.90
13898;DHT22;7019;50.766;4.474;2023-08-20T15:25:01;28.60;99.90
13898;DHT22;7019;50.766;4.474;2023-08-20T15:27:29;28.50;99.90
13898;DHT22;7019;50.766;4.474;2023-08-20T15:29:56;28.50;99.90
13898;DHT22;7019;50.766;4.474;2023-08-20T15:32:23;28.50;99.90
13898;DHT22;7019;50.766;4.474;2023-08-20T15:34:52;28.50;99.90
13898;DHT22;7019;50.766;4.474;2023-08-20T15:37:19;28.50;99.90
13898;DHT22;7019;50.766;4.474;2023-08-20T15:39:46;28.40;99.90
13898;DHT22;7019;50.766;4.474;2023-08-20T15:42:15;28.20;99.90
13898;DHT22;7019;50.766;4.474;2023-08-20T15:44:43;28.10;99.90
13898;DHT22;7019;50.766;4.474;2023-08-20T15:47:11;28.00;99.90
13898;DHT22;7019;50.766;4.474;2023-08-20T15:49:38;28.00;99.90
13898;DHT22;7019;50.766;4.474;2023-08-20T15:52:05;28.00;99.90